createdAt,value
2023-08-25T00:00:46.985Z,21.06
2023-08-25T00:01:47.070Z,21.07
2023-08-25T00:02:47.038Z,21.07
2023-08-25T00:03:47.017Z,21.09
2023-08-25T00:04:46.950Z,21.09
2023-08-25T00:05:46.907Z,21.07
2023-08-25T00:06:46.904Z,21.06
2023-08-25T00:07:46.928Z,21.06
2023-08-25T00:08:46.888Z,21.01
2023-08-25T00:09:46.900Z,21.03
2023-08-25T00:10:46.854Z,21.03
2023-08-25T00:11:46.864Z,21.04
2023-08-25T00:12:46.837Z,21.06
2023-08-25T00:13:46.820Z,21.09
2023-08-25T00:14:46.813Z,21.13
2023-08-25T00:15:49.536Z,21.13
2023-08-25T00:16:46.847Z,21.17
2023-08-25T00:17:46.794Z,21.19
2023-08-25T00:18:48.708Z,21.21
2023-08-25T00:19:46.752Z,21.17
2023-08-25T00:20:46.778Z,21.14
2023-08-25T00:21:46.744Z,21.13
2023-08-25T00:22:46.720Z,21.10
2023-08-25T00:23:46.743Z,21.06
2023-08-25T00:24:46.725Z,21.06
2023-08-25T00:25:46.790Z,21.06
2023-08-25T00:26:46.700Z,21.04
2023-08-25T00:27:46.680Z,21.03
2023-08-25T00:28:46.689Z,21.04
2023-08-25T00:29:46.641Z,21.04
2023-08-25T00:30:46.657Z,21.03
2023-08-25T00:31:46.612Z,21.01
2023-08-25T00:32:46.639Z,21.01
2023-08-25T00:33:46.592Z,20.99
2023-08-25T00:34:46.623Z,20.99
2023-08-25T00:35:46.647Z,21.03
2023-08-25T00:36:46.560Z,20.99
2023-08-25T00:37:46.568Z,21.01
2023-08-25T00:38:46.577Z,21.03
2023-08-25T00:39:46.550Z,21.03
2023-08-25T00:40:46.545Z,21.06
2023-08-25T00:41:46.568Z,21.06
2023-08-25T00:42:46.515Z,21.06
2023-08-25T00:43:46.492Z,21.06
2023-08-25T00:44:46.494Z,21.01
2023-08-25T00:45:46.477Z,21.03
2023-08-25T00:46:46.512Z,21.03
2023-08-25T00:47:46.512Z,21.04
2023-08-25T00:48:46.449Z,21.04
2023-08-25T00:49:46.432Z,21.07
2023-08-25T00:50:46.543Z,21.07
2023-08-25T00:51:46.424Z,21.10
2023-08-25T00:52:46.406Z,21.07
2023-08-25T00:53:46.424Z,21.07
2023-08-25T00:54:46.359Z,21.04
2023-08-25T00:55:46.413Z,21.03
2023-08-25T00:56:46.443Z,21.01
2023-08-25T00:57:46.373Z,20.99
2023-08-25T00:58:46.358Z,20.98
2023-08-25T00:59:46.452Z,20.97
2023-08-25T01:00:46.421Z,20.97
2023-08-25T01:01:46.469Z,20.97
2023-08-25T01:02:46.425Z,20.92
2023-08-25T01:03:46.325Z,20.92
2023-08-25T01:04:46.375Z,20.91
2023-08-25T01:05:46.292Z,20.89
2023-08-25T01:06:46.337Z,20.89
2023-08-25T01:07:46.301Z,20.87
2023-08-25T01:08:46.227Z,20.85
2023-08-25T01:09:46.264Z,20.85
2023-08-25T01:10:46.289Z,20.84
2023-08-25T01:11:46.256Z,20.80
2023-08-25T01:12:46.264Z,20.77
2023-08-25T01:13:46.183Z,20.76
2023-08-25T01:14:46.198Z,20.73
2023-08-25T01:15:46.279Z,20.70
2023-08-25T01:16:46.222Z,20.69
2023-08-25T01:17:46.214Z,20.67
2023-08-25T01:18:46.275Z,20.66
2023-08-25T01:19:46.235Z,20.62
2023-08-25T01:20:46.115Z,20.61
2023-08-25T01:21:46.118Z,20.62
2023-08-25T01:22:46.230Z,20.62
2023-08-25T01:23:46.251Z,20.59
2023-08-25T01:24:46.161Z,20.59
2023-08-25T01:25:46.153Z,20.59
2023-08-25T01:26:46.071Z,20.58
2023-08-25T01:27:46.221Z,20.58
2023-08-25T01:28:46.008Z,20.57
2023-08-25T01:29:46.065Z,20.58
2023-08-25T01:30:46.100Z,20.54
2023-08-25T01:31:46.027Z,20.52
2023-08-25T01:32:46.093Z,20.51
2023-08-25T01:33:46.009Z,20.47
2023-08-25T01:34:45.971Z,20.42
2023-08-25T01:35:45.943Z,20.42
2023-08-25T01:36:45.921Z,20.39
2023-08-25T01:37:45.968Z,20.36
2023-08-25T01:38:45.918Z,20.33
2023-08-25T01:39:45.918Z,20.29
2023-08-25T01:40:45.912Z,20.29
2023-08-25T01:41:46.075Z,20.28
2023-08-25T01:42:45.848Z,20.23
2023-08-25T01:43:45.877Z,20.21
2023-08-25T01:44:45.857Z,20.20
2023-08-25T01:45:45.973Z,20.17
2023-08-25T01:46:45.854Z,20.14
2023-08-25T01:47:45.887Z,20.14
2023-08-25T01:48:45.816Z,20.14
2023-08-25T01:49:45.766Z,20.13
2023-08-25T01:50:45.902Z,20.11
2023-08-25T01:51:45.820Z,20.10
2023-08-25T01:52:45.770Z,20.10
2023-08-25T01:53:45.991Z,20.06
2023-08-25T01:54:46.046Z,20.03
2023-08-25T01:55:45.807Z,20.03
2023-08-25T01:56:45.768Z,19.99
2023-08-25T01:57:45.726Z,19.98
2023-08-25T01:58:47.353Z,19.96
2023-08-25T01:59:45.699Z,19.96
2023-08-25T02:00:45.674Z,19.95
2023-08-25T02:01:45.904Z,19.94
2023-08-25T02:02:45.717Z,19.91
2023-08-25T02:03:45.658Z,19.92
2023-08-25T02:04:45.725Z,19.86
2023-08-25T02:05:45.757Z,19.86
2023-08-25T02:06:45.654Z,19.81
2023-08-25T02:07:45.608Z,19.83
2023-08-25T02:08:45.580Z,19.78
2023-08-25T02:09:45.841Z,19.74
2023-08-25T02:10:45.778Z,19.73
2023-08-25T02:11:45.648Z,19.71
2023-08-25T02:12:45.828Z,19.66
2023-08-25T02:13:45.589Z,19.65
2023-08-25T02:14:45.541Z,19.62
2023-08-25T02:15:45.529Z,19.62
2023-08-25T02:16:45.559Z,19.62
2023-08-25T02:17:45.599Z,19.63
2023-08-25T02:18:45.642Z,19.62
2023-08-25T02:19:45.680Z,19.63
2023-08-25T02:20:46.050Z,19.62
2023-08-25T02:21:45.513Z,19.62
2023-08-25T02:22:45.437Z,19.61
2023-08-25T02:23:45.434Z,19.59
2023-08-25T02:24:45.434Z,19.58
2023-08-25T02:25:45.443Z,19.56
2023-08-25T02:26:45.409Z,19.55
2023-08-25T02:27:45.418Z,19.56
2023-08-25T02:28:45.502Z,19.55
2023-08-25T02:29:45.493Z,19.56
2023-08-25T02:30:45.567Z,19.56
2023-08-25T02:31:45.397Z,19.58
2023-08-25T02:32:45.374Z,19.56
2023-08-25T02:33:45.407Z,19.56
2023-08-25T02:34:45.312Z,19.56
2023-08-25T02:35:45.400Z,19.56
2023-08-25T02:36:45.275Z,19.55
2023-08-25T02:37:45.277Z,19.50
2023-08-25T02:38:45.272Z,19.50
2023-08-25T02:39:45.299Z,19.46
2023-08-25T02:40:45.528Z,19.44
2023-08-25T02:41:45.353Z,19.43
2023-08-25T02:42:45.221Z,19.43
2023-08-25T02:43:45.262Z,19.40
2023-08-25T02:44:45.201Z,19.43
2023-08-25T02:45:45.288Z,19.43
2023-08-25T02:46:45.186Z,19.44
2023-08-25T02:47:45.206Z,19.43
2023-08-25T02:48:45.147Z,19.43
2023-08-25T02:49:45.170Z,19.41
2023-08-25T02:50:45.230Z,19.41
2023-08-25T02:51:45.142Z,19.39
2023-08-25T02:52:45.306Z,19.33
2023-08-25T02:53:45.163Z,19.33
2023-08-25T02:54:45.103Z,19.32
2023-08-25T02:55:45.474Z,19.29
2023-08-25T02:56:45.108Z,19.26
2023-08-25T02:57:45.243Z,19.26
2023-08-25T02:58:45.348Z,19.22
2023-08-25T02:59:45.104Z,19.23
2023-08-25T03:00:45.366Z,19.21
2023-08-25T03:01:45.032Z,19.21
2023-08-25T03:02:45.433Z,19.21
2023-08-25T03:03:45.311Z,19.19
2023-08-25T03:04:45.093Z,19.18
2023-08-25T03:05:45.032Z,19.18
2023-08-25T03:06:45.016Z,19.14
2023-08-25T03:07:44.997Z,19.11
2023-08-25T03:08:44.930Z,19.08
2023-08-25T03:09:45.218Z,19.02
2023-08-25T03:10:45.132Z,19.00
2023-08-25T03:11:45.224Z,18.98
2023-08-25T03:12:45.167Z,18.92
2023-08-25T03:13:45.194Z,18.88
2023-08-25T03:14:44.889Z,18.85
2023-08-25T03:15:44.986Z,18.84
2023-08-25T03:16:45.191Z,18.81
2023-08-25T03:17:45.290Z,18.80
2023-08-25T03:18:44.977Z,18.73
2023-08-25T03:19:44.843Z,18.73
2023-08-25T03:20:45.060Z,18.70
2023-08-25T03:21:44.947Z,18.69
2023-08-25T03:22:44.777Z,18.66
2023-08-25T03:23:44.833Z,18.65
2023-08-25T03:24:44.806Z,18.63
2023-08-25T03:25:44.840Z,18.63
2023-08-25T03:26:44.913Z,18.63
2023-08-25T03:27:45.220Z,18.60
2023-08-25T03:28:44.796Z,18.58
2023-08-25T03:29:44.723Z,18.57
2023-08-25T03:30:44.794Z,18.55
2023-08-25T03:31:44.867Z,18.54
2023-08-25T03:32:44.804Z,18.54
2023-08-25T03:33:44.731Z,18.54
2023-08-25T03:34:44.696Z,18.54
2023-08-25T03:35:44.722Z,18.52
2023-08-25T03:36:44.632Z,18.48
2023-08-25T03:37:44.667Z,18.44
2023-08-25T03:38:44.726Z,18.44
2023-08-25T03:39:44.676Z,18.41
2023-08-25T03:40:44.596Z,18.41
2023-08-25T03:41:44.620Z,18.41
2023-08-25T03:42:44.608Z,18.39
2023-08-25T03:43:44.568Z,18.41
2023-08-25T03:44:44.552Z,18.41
2023-08-25T03:45:44.582Z,18.41
2023-08-25T03:46:44.551Z,18.44
2023-08-25T03:47:44.578Z,18.47
2023-08-25T03:48:44.535Z,18.48
2023-08-25T03:49:44.521Z,18.45
2023-08-25T03:50:44.492Z,18.45
2023-08-25T03:51:44.496Z,18.44
2023-08-25T03:52:44.461Z,18.42
2023-08-25T03:53:44.492Z,18.39
2023-08-25T03:54:44.425Z,18.41
2023-08-25T03:55:44.449Z,18.41
2023-08-25T03:56:44.442Z,18.41
2023-08-25T03:57:44.465Z,18.41
2023-08-25T03:58:44.380Z,18.41
2023-08-25T03:59:44.411Z,18.39
2023-08-25T04:00:44.420Z,18.35
2023-08-25T04:01:44.391Z,18.33
2023-08-25T04:02:44.424Z,18.33
2023-08-25T04:03:44.441Z,18.33
2023-08-25T04:04:44.335Z,18.30
2023-08-25T04:05:44.343Z,18.32
2023-08-25T04:06:44.385Z,18.33
2023-08-25T04:07:44.312Z,18.32
2023-08-25T04:08:44.289Z,18.30
2023-08-25T04:09:44.300Z,18.30
2023-08-25T04:10:44.244Z,18.32
2023-08-25T04:11:44.268Z,18.27
2023-08-25T04:12:44.264Z,18.27
2023-08-25T04:13:44.243Z,18.27
2023-08-25T04:14:44.206Z,18.29
2023-08-25T04:15:44.219Z,18.35
2023-08-25T04:16:44.344Z,18.36
2023-08-25T04:17:44.268Z,18.36
2023-08-25T04:18:44.173Z,18.37
2023-08-25T04:19:44.175Z,18.41
2023-08-25T04:20:44.208Z,18.45
2023-08-25T04:21:44.207Z,18.47
2023-08-25T04:22:44.129Z,18.51
2023-08-25T04:23:44.138Z,18.50
2023-08-25T04:24:44.128Z,18.51
2023-08-25T04:25:44.156Z,18.51
2023-08-25T04:26:44.103Z,18.48
2023-08-25T04:27:44.109Z,18.50
2023-08-25T04:28:44.072Z,18.48
2023-08-25T04:29:44.094Z,18.50
2023-08-25T04:30:44.063Z,18.50
2023-08-25T04:31:44.072Z,18.47
2023-08-25T04:32:44.031Z,18.47
2023-08-25T04:33:44.136Z,18.47
2023-08-25T04:34:44.005Z,18.45
2023-08-25T04:35:44.001Z,18.44
2023-08-25T04:36:43.997Z,18.44
2023-08-25T04:37:43.979Z,18.44
2023-08-25T04:38:43.971Z,18.42
2023-08-25T04:39:43.980Z,18.41
2023-08-25T04:40:43.992Z,18.39
2023-08-25T04:41:43.998Z,18.37
2023-08-25T04:42:43.910Z,18.37
2023-08-25T04:43:43.905Z,18.35
2023-08-25T04:44:43.919Z,18.32
2023-08-25T04:45:43.879Z,18.35
2023-08-25T04:46:43.888Z,18.35
2023-08-25T04:47:43.902Z,18.33
2023-08-25T04:48:43.827Z,18.36
2023-08-25T04:49:43.865Z,18.35
2023-08-25T04:50:43.853Z,18.35
2023-08-25T04:51:43.796Z,18.35
2023-08-25T04:52:43.819Z,18.37
2023-08-25T04:53:43.780Z,18.37
2023-08-25T04:54:43.780Z,18.41
2023-08-25T04:55:43.769Z,18.42
2023-08-25T04:56:43.812Z,18.44
2023-08-25T04:57:43.747Z,18.45
2023-08-25T04:58:43.852Z,18.45
2023-08-25T04:59:43.760Z,18.47
2023-08-25T05:00:43.809Z,18.47
2023-08-25T05:01:43.820Z,18.50
2023-08-25T05:02:43.807Z,18.48
2023-08-25T05:03:43.818Z,18.48
2023-08-25T05:04:43.759Z,18.51
2023-08-25T05:05:43.649Z,18.52
2023-08-25T05:06:43.652Z,18.54
2023-08-25T05:07:43.697Z,18.55
2023-08-25T05:08:43.658Z,18.57
2023-08-25T05:09:43.612Z,18.57
2023-08-25T05:10:43.630Z,18.57
2023-08-25T05:11:43.611Z,18.60
2023-08-25T05:12:43.599Z,18.60
2023-08-25T05:13:44.479Z,18.63
2023-08-25T05:14:43.613Z,18.62
2023-08-25T05:15:43.568Z,18.63
2023-08-25T05:16:43.657Z,18.65
2023-08-25T05:17:43.570Z,18.66
2023-08-25T05:18:43.558Z,18.69
2023-08-25T05:19:43.498Z,18.70
2023-08-25T05:20:43.520Z,18.73
2023-08-25T05:21:43.476Z,18.73
2023-08-25T05:22:43.478Z,18.78
2023-08-25T05:23:43.470Z,18.80
2023-08-25T05:24:43.451Z,18.82
2023-08-25T05:25:43.464Z,18.84
2023-08-25T05:26:43.448Z,18.85
2023-08-25T05:27:43.410Z,18.90
2023-08-25T05:28:43.420Z,18.90
2023-08-25T05:29:43.387Z,18.94
2023-08-25T05:30:43.393Z,18.94
2023-08-25T05:31:43.369Z,18.98
2023-08-25T05:32:43.467Z,19.00
2023-08-25T05:33:43.351Z,19.02
2023-08-25T05:34:43.336Z,19.04
2023-08-25T05:35:43.462Z,19.07
2023-08-25T05:36:43.344Z,19.10
2023-08-25T05:37:43.374Z,19.11
2023-08-25T05:38:43.319Z,19.14
2023-08-25T05:39:43.262Z,19.19
2023-08-25T05:40:43.332Z,19.22
2023-08-25T05:41:43.321Z,19.25
2023-08-25T05:42:43.280Z,19.29
2023-08-25T05:43:43.255Z,19.32
2023-08-25T05:44:43.263Z,19.37
2023-08-25T05:45:43.215Z,19.39
2023-08-25T05:46:43.229Z,19.43
2023-08-25T05:47:43.223Z,19.46
2023-08-25T05:48:43.192Z,19.50
2023-08-25T05:49:43.180Z,19.54
2023-08-25T05:50:43.192Z,19.59
2023-08-25T05:51:43.154Z,19.63
2023-08-25T05:52:43.192Z,19.69
2023-08-25T05:53:43.125Z,19.68
2023-08-25T05:54:43.170Z,19.73
2023-08-25T05:55:43.170Z,19.77
2023-08-25T05:56:43.140Z,19.78
2023-08-25T05:57:43.088Z,19.81
2023-08-25T05:58:43.088Z,19.81
2023-08-25T05:59:43.114Z,19.81
2023-08-25T06:00:43.068Z,19.81
2023-08-25T06:01:43.092Z,19.81
2023-08-25T06:02:43.148Z,19.86
2023-08-25T06:03:43.047Z,19.88
2023-08-25T06:04:43.040Z,19.92
2023-08-25T06:05:43.029Z,19.95
2023-08-25T06:06:43.188Z,19.96
2023-08-25T06:07:42.985Z,20.01
2023-08-25T06:08:43.015Z,20.03
2023-08-25T06:09:42.953Z,20.05
2023-08-25T06:10:43.956Z,20.06
2023-08-25T06:11:42.930Z,20.10
2023-08-25T06:12:42.981Z,20.11
2023-08-25T06:13:42.910Z,20.14
2023-08-25T06:14:42.954Z,20.18
2023-08-25T06:15:42.915Z,20.24
2023-08-25T06:16:51.669Z,20.28
2023-08-25T06:17:45.558Z,20.32
2023-08-25T06:18:42.850Z,20.32
2023-08-25T06:19:42.821Z,20.33
2023-08-25T06:20:42.835Z,20.36
2023-08-25T06:21:42.823Z,20.38
2023-08-25T06:22:42.817Z,20.41
2023-08-25T06:23:42.785Z,20.47
2023-08-25T06:24:42.804Z,20.48
2023-08-25T06:25:42.752Z,20.50
2023-08-25T06:26:42.771Z,20.54
2023-08-25T06:27:42.778Z,20.57
2023-08-25T06:28:42.790Z,20.59
2023-08-25T06:29:42.712Z,20.66
2023-08-25T06:30:42.727Z,20.70
2023-08-25T06:31:42.718Z,20.73
2023-08-25T06:32:42.771Z,20.74
2023-08-25T06:33:42.672Z,20.79
2023-08-25T06:34:42.694Z,20.80
2023-08-25T06:35:42.649Z,20.80
2023-08-25T06:36:42.729Z,20.80
2023-08-25T06:37:42.723Z,20.82
2023-08-25T06:38:55.471Z,20.84
2023-08-25T06:39:43.612Z,20.88
2023-08-25T06:40:42.625Z,20.88
2023-08-25T06:41:42.574Z,20.89
2023-08-25T06:42:42.623Z,20.94
2023-08-25T06:43:42.561Z,20.95
2023-08-25T06:44:42.566Z,20.99
2023-08-25T06:45:42.620Z,21.03
2023-08-25T06:46:42.556Z,21.04
2023-08-25T06:47:42.525Z,21.09
2023-08-25T06:48:42.540Z,21.14
2023-08-25T06:49:42.512Z,21.17
2023-08-25T06:50:42.526Z,21.22
2023-08-25T06:51:42.488Z,21.28
2023-08-25T06:52:42.514Z,21.32
2023-08-25T06:53:42.473Z,21.37
2023-08-25T06:54:42.461Z,21.34
2023-08-25T06:55:42.463Z,21.38
2023-08-25T06:56:42.474Z,21.44
2023-08-25T06:57:42.422Z,21.43
2023-08-25T06:58:42.433Z,21.50
2023-08-25T06:59:42.394Z,21.53
2023-08-25T07:00:42.408Z,21.59
2023-08-25T07:01:42.427Z,21.65
2023-08-25T07:02:42.428Z,21.68
2023-08-25T07:03:42.387Z,21.72
2023-08-25T07:04:42.375Z,21.71
2023-08-25T07:05:42.342Z,21.74
2023-08-25T07:06:42.352Z,21.79
2023-08-25T07:07:42.310Z,21.84
2023-08-25T07:08:42.376Z,21.92
2023-08-25T07:09:44.545Z,21.96
2023-08-25T07:10:42.302Z,21.99
2023-08-25T07:11:42.273Z,22.03
2023-08-25T07:12:42.280Z,22.06
2023-08-25T07:13:42.253Z,22.10
2023-08-25T07:14:42.272Z,22.09
2023-08-25T07:15:42.270Z,22.10
2023-08-25T07:16:42.235Z,22.10
2023-08-25T07:17:42.240Z,22.15
2023-08-25T07:18:42.215Z,22.17
2023-08-25T07:19:42.189Z,22.20
2023-08-25T07:20:42.190Z,22.20
2023-08-25T07:21:42.156Z,22.21
2023-08-25T07:22:42.182Z,22.27
2023-08-25T07:23:42.148Z,22.33
2023-08-25T07:24:42.143Z,22.25
2023-08-25T07:25:42.126Z,22.21
2023-08-25T07:26:42.121Z,22.17
2023-08-25T07:27:42.093Z,22.10
2023-08-25T07:28:42.111Z,22.12
2023-08-25T07:29:42.069Z,22.21
2023-08-25T07:30:42.081Z,22.31
2023-08-25T07:31:42.106Z,22.39
2023-08-25T07:32:42.068Z,22.47
2023-08-25T07:33:42.049Z,22.58
2023-08-25T07:34:42.032Z,22.70
2023-08-25T07:35:42.005Z,22.80
2023-08-25T07:36:42.024Z,22.90
2023-08-25T07:37:41.993Z,23.01
2023-08-25T07:38:42.008Z,23.12
2023-08-25T07:39:42.086Z,23.23
2023-08-25T07:40:41.983Z,23.27
2023-08-25T07:41:41.950Z,23.25
2023-08-25T07:42:41.947Z,23.20
2023-08-25T07:43:43.152Z,23.23
2023-08-25T07:44:41.928Z,23.31
2023-08-25T07:45:41.917Z,23.38
2023-08-25T07:46:41.966Z,23.40
2023-08-25T07:47:41.916Z,23.39
2023-08-25T07:48:41.893Z,23.51
2023-08-25T07:49:41.888Z,23.55
2023-08-25T07:50:41.886Z,23.66
2023-08-25T07:51:41.826Z,23.72
2023-08-25T07:52:41.845Z,23.75
2023-08-25T07:53:41.811Z,23.78
2023-08-25T07:54:41.839Z,23.85
2023-08-25T07:55:41.797Z,23.83
2023-08-25T07:56:41.819Z,23.78
2023-08-25T07:57:41.859Z,23.84
2023-08-25T07:58:41.786Z,23.91
2023-08-25T07:59:41.760Z,24.03
2023-08-25T08:00:41.833Z,24.15
2023-08-25T08:01:41.745Z,24.31
2023-08-25T08:02:41.789Z,24.47
2023-08-25T08:03:41.747Z,24.64
2023-08-25T08:04:41.753Z,24.69
2023-08-25T08:05:41.718Z,24.67
2023-08-25T08:06:41.718Z,24.76
2023-08-25T08:07:41.672Z,24.84
2023-08-25T08:08:41.752Z,24.91
2023-08-25T08:09:41.649Z,24.98
2023-08-25T08:10:41.677Z,25.05
2023-08-25T08:11:41.653Z,25.05
2023-08-25T08:12:41.632Z,25.03
2023-08-25T08:13:41.602Z,25.08
2023-08-25T08:14:46.426Z,25.15
2023-08-25T08:15:42.585Z,25.18
2023-08-25T08:16:41.665Z,25.18
2023-08-25T08:17:42.345Z,25.21
2023-08-25T08:18:41.589Z,25.30
2023-08-25T08:19:41.576Z,25.39
2023-08-25T08:20:41.547Z,25.47
2023-08-25T08:21:41.526Z,25.58
2023-08-25T08:22:41.560Z,25.58
2023-08-25T08:23:41.486Z,25.55
2023-08-25T08:24:50.229Z,25.58
2023-08-25T08:25:42.464Z,25.57
2023-08-25T08:26:41.496Z,25.50
2023-08-25T08:27:41.461Z,25.45
2023-08-25T08:28:41.463Z,25.33
2023-08-25T08:29:41.439Z,25.36
2023-08-25T08:30:41.488Z,25.36
2023-08-25T08:31:41.439Z,25.39
2023-08-25T08:32:41.468Z,25.35
2023-08-25T08:33:41.413Z,25.32
2023-08-25T08:34:41.409Z,25.24
2023-08-25T08:35:41.357Z,25.21
2023-08-25T08:36:41.400Z,25.25
2023-08-25T08:37:41.419Z,25.27
2023-08-25T08:38:41.365Z,25.30
2023-08-25T08:39:41.327Z,25.25
2023-08-25T08:40:41.332Z,25.24
2023-08-25T08:41:41.425Z,25.24
2023-08-25T08:42:41.309Z,25.25
2023-08-25T08:43:41.286Z,25.25
2023-08-25T08:44:41.306Z,25.21
2023-08-25T08:45:41.266Z,25.18
2023-08-25T08:46:41.331Z,25.13
2023-08-25T08:47:41.265Z,25.03
2023-08-25T08:48:41.249Z,24.96
2023-08-25T08:49:41.216Z,24.95
2023-08-25T08:50:41.252Z,24.93
2023-08-25T08:51:41.190Z,24.85
2023-08-25T08:52:41.210Z,24.78
2023-08-25T08:53:41.179Z,24.67
2023-08-25T08:54:41.188Z,24.58
2023-08-25T08:55:41.183Z,24.53
2023-08-25T08:56:41.170Z,24.55
2023-08-25T08:57:41.158Z,24.55
2023-08-25T08:58:41.159Z,24.53
2023-08-25T08:59:41.120Z,24.52
2023-08-25T09:00:41.156Z,24.50
2023-08-25T09:01:41.113Z,24.43
2023-08-25T09:02:41.131Z,24.39
2023-08-25T09:03:41.080Z,24.28
2023-08-25T09:04:41.104Z,24.20
2023-08-25T09:05:41.090Z,24.18
2023-08-25T09:06:41.035Z,24.20
2023-08-25T09:07:41.054Z,24.16
2023-08-25T09:08:41.021Z,24.12
2023-08-25T09:09:41.049Z,24.12
2023-08-25T09:10:41.005Z,24.08
2023-08-25T09:11:41.016Z,24.09
2023-08-25T09:12:41.058Z,24.06
2023-08-25T09:13:40.981Z,24.06
2023-08-25T09:14:40.954Z,24.05
2023-08-25T09:15:40.954Z,24.03
2023-08-25T09:16:41.014Z,24.00
2023-08-25T09:17:40.995Z,23.97
2023-08-25T09:18:40.922Z,23.91
2023-08-25T09:19:40.947Z,23.87
2023-08-25T09:20:40.904Z,23.85
2023-08-25T09:21:40.924Z,23.84
2023-08-25T09:22:40.878Z,23.80
2023-08-25T09:23:40.902Z,23.78
2023-08-25T09:24:40.854Z,23.76
2023-08-25T09:25:40.880Z,23.70
2023-08-25T09:26:40.840Z,23.66
2023-08-25T09:27:40.853Z,23.65
2023-08-25T09:28:40.810Z,23.61
2023-08-25T09:29:40.822Z,23.60
2023-08-25T09:30:40.817Z,23.61
2023-08-25T09:31:40.800Z,23.60
2023-08-25T09:32:40.823Z,23.60
2023-08-25T09:33:40.780Z,23.58
2023-08-25T09:34:40.737Z,23.53
2023-08-25T09:35:40.769Z,23.53
2023-08-25T09:36:40.726Z,23.53
2023-08-25T09:37:40.746Z,23.55
2023-08-25T09:38:52.822Z,23.58
2023-08-25T09:39:41.724Z,23.58
2023-08-25T09:40:40.693Z,23.61
2023-08-25T09:41:40.682Z,23.63
2023-08-25T09:42:41.118Z,23.65
2023-08-25T09:43:40.936Z,23.66
2023-08-25T09:44:43.119Z,23.66
2023-08-25T09:45:40.652Z,23.69
2023-08-25T09:46:40.615Z,23.69
2023-08-25T09:47:40.631Z,23.73
2023-08-25T09:48:40.635Z,23.72
2023-08-25T09:49:40.646Z,23.70
2023-08-25T09:50:40.610Z,23.66
2023-08-25T09:51:40.774Z,23.63
2023-08-25T09:52:40.556Z,23.61
2023-08-25T09:53:40.574Z,23.57
2023-08-25T09:54:40.527Z,23.53
2023-08-25T09:55:40.572Z,23.47
2023-08-25T09:56:40.521Z,23.46
2023-08-25T09:57:40.527Z,23.43
2023-08-25T09:58:40.482Z,23.39
2023-08-25T09:59:40.511Z,23.35
2023-08-25T10:00:40.484Z,23.33
2023-08-25T10:01:40.591Z,23.28
2023-08-25T10:02:40.485Z,23.23
2023-08-25T10:03:40.462Z,23.22
2023-08-25T10:04:40.429Z,23.16
2023-08-25T10:05:40.513Z,23.13
2023-08-25T10:06:40.400Z,23.10
2023-08-25T10:07:40.419Z,23.07
2023-08-25T10:08:40.397Z,23.04
2023-08-25T10:09:40.392Z,23.00
2023-08-25T10:10:40.487Z,22.98
2023-08-25T10:11:40.380Z,22.97
2023-08-25T10:12:40.342Z,22.92
2023-08-25T10:13:40.362Z,22.83
2023-08-25T10:14:40.348Z,22.76
2023-08-25T10:15:40.351Z,22.67
2023-08-25T10:16:40.322Z,22.58
2023-08-25T10:17:40.349Z,22.54
2023-08-25T10:18:40.266Z,22.49
2023-08-25T10:19:40.276Z,22.43
2023-08-25T10:20:40.274Z,22.33
2023-08-25T10:21:40.281Z,22.21
2023-08-25T10:22:40.227Z,22.10
2023-08-25T10:23:40.246Z,21.99
2023-08-25T10:24:40.229Z,21.90
2023-08-25T10:25:40.231Z,21.75
2023-08-25T10:26:40.196Z,21.67
2023-08-25T10:27:40.187Z,21.56
2023-08-25T10:28:40.170Z,21.50
2023-08-25T10:29:40.188Z,21.47
2023-08-25T10:30:40.151Z,21.42
2023-08-25T10:31:40.172Z,21.40
2023-08-25T10:32:40.169Z,21.37
2023-08-25T10:33:40.191Z,21.29
2023-08-25T10:34:40.135Z,21.24
2023-08-25T10:35:40.135Z,21.21
2023-08-25T10:36:40.108Z,21.17
2023-08-25T10:37:40.096Z,21.14
2023-08-25T10:38:40.124Z,21.13
2023-08-25T10:39:40.093Z,21.12
2023-08-25T10:40:40.036Z,21.06
2023-08-25T10:41:40.045Z,21.04
2023-08-25T10:42:40.028Z,21.03
2023-08-25T10:43:40.042Z,21.06
2023-08-25T10:44:40.003Z,21.06
2023-08-25T10:45:40.201Z,21.01
2023-08-25T10:46:48.944Z,20.99
2023-08-25T10:47:41.062Z,21.03
2023-08-25T10:48:40.080Z,21.01
2023-08-25T10:49:40.036Z,20.99
2023-08-25T10:50:39.929Z,20.99
2023-08-25T10:51:40.001Z,20.97
2023-08-25T10:52:39.913Z,20.99
2023-08-25T10:53:39.928Z,20.99
2023-08-25T10:54:39.877Z,20.98
2023-08-25T10:55:39.893Z,20.98
2023-08-25T10:56:39.878Z,20.98
2023-08-25T10:57:39.998Z,20.98
2023-08-25T10:58:39.841Z,20.98
2023-08-25T10:59:39.870Z,20.98
2023-08-25T11:00:39.821Z,21.03
2023-08-25T11:01:40.116Z,21.04
2023-08-25T11:02:39.913Z,21.06
2023-08-25T11:03:39.848Z,21.06
2023-08-25T11:04:39.959Z,21.04
2023-08-25T11:05:40.781Z,21.04
2023-08-25T11:06:39.759Z,21.06
2023-08-25T11:07:39.816Z,21.12
2023-08-25T11:08:39.751Z,21.13
2023-08-25T11:09:39.737Z,21.17
2023-08-25T11:10:41.021Z,21.21
2023-08-25T11:11:39.728Z,21.25
2023-08-25T11:12:39.699Z,21.28
2023-08-25T11:13:39.714Z,21.32
2023-08-25T11:14:39.663Z,21.35
2023-08-25T11:15:40.156Z,21.38
2023-08-25T11:16:39.690Z,21.46
2023-08-25T11:17:39.668Z,21.52
2023-08-25T11:18:39.638Z,21.54
2023-08-25T11:19:39.641Z,21.54
2023-08-25T11:20:39.602Z,21.50
2023-08-25T11:21:39.626Z,21.47
2023-08-25T11:22:39.671Z,21.47
2023-08-25T11:23:40.584Z,21.50
2023-08-25T11:24:39.605Z,21.54
2023-08-25T11:25:39.571Z,21.61
2023-08-25T11:26:39.536Z,21.65
2023-08-25T11:27:39.557Z,21.72
2023-08-25T11:28:39.516Z,21.71
2023-08-25T11:29:39.534Z,21.74
2023-08-25T11:30:39.532Z,21.74
2023-08-25T11:31:39.492Z,21.72
2023-08-25T11:32:39.482Z,21.79
2023-08-25T11:33:39.482Z,21.74
2023-08-25T11:34:39.459Z,21.71
2023-08-25T11:35:39.484Z,21.68
2023-08-25T11:36:39.427Z,21.65
2023-08-25T11:37:39.443Z,21.62
2023-08-25T11:38:39.418Z,21.58
2023-08-25T11:39:39.422Z,21.50
2023-08-25T11:40:39.384Z,21.46
2023-08-25T11:41:39.407Z,21.37
2023-08-25T11:42:39.353Z,21.29
2023-08-25T11:43:39.375Z,21.25
2023-08-25T11:44:39.355Z,21.19
2023-08-25T11:45:39.354Z,21.16
2023-08-25T11:46:39.354Z,21.13
2023-08-25T11:47:39.506Z,21.09
2023-08-25T11:48:39.301Z,21.12
2023-08-25T11:49:39.305Z,21.14
2023-08-25T11:50:39.283Z,21.14
2023-08-25T11:51:39.295Z,21.12
2023-08-25T11:52:39.282Z,21.10
2023-08-25T11:53:39.288Z,21.09
2023-08-25T11:54:39.241Z,21.07
2023-08-25T11:55:39.265Z,21.07
2023-08-25T11:56:39.221Z,21.14
2023-08-25T11:57:39.247Z,21.13
2023-08-25T11:58:39.190Z,21.17
2023-08-25T11:59:39.218Z,21.22
2023-08-25T12:00:39.454Z,21.24
2023-08-25T12:01:39.179Z,21.25
2023-08-25T12:02:39.198Z,21.29
2023-08-25T12:03:39.224Z,21.25
2023-08-25T12:04:39.127Z,21.19
2023-08-25T12:05:39.131Z,21.12
2023-08-25T12:06:39.111Z,21.09
2023-08-25T12:07:39.155Z,21.04
2023-08-25T12:08:39.101Z,20.99
2023-08-25T12:09:39.111Z,20.95
2023-08-25T12:10:39.070Z,20.91
2023-08-25T12:11:39.082Z,20.85
2023-08-25T12:12:39.458Z,20.80
2023-08-25T12:13:39.061Z,20.79
2023-08-25T12:14:39.022Z,20.72
2023-08-25T12:15:39.549Z,20.69
2023-08-25T12:16:39.020Z,20.69
2023-08-25T12:17:39.100Z,20.70
2023-08-25T12:18:39.062Z,20.67
2023-08-25T12:19:38.991Z,20.67
2023-08-25T12:20:38.967Z,20.64
2023-08-25T12:21:38.974Z,20.66
2023-08-25T12:22:38.942Z,20.66
2023-08-25T12:23:38.955Z,20.61
2023-08-25T12:24:38.923Z,20.57
2023-08-25T12:25:38.946Z,20.58
2023-08-25T12:26:38.922Z,20.55
2023-08-25T12:27:38.917Z,20.52
2023-08-25T12:28:38.878Z,20.51
2023-08-25T12:29:38.881Z,20.52
2023-08-25T12:30:38.900Z,20.48
2023-08-25T12:31:38.874Z,20.50
2023-08-25T12:32:38.845Z,20.47
2023-08-25T12:33:38.858Z,20.48
2023-08-25T12:34:38.830Z,20.42
2023-08-25T12:35:38.830Z,20.39
2023-08-25T12:36:38.807Z,20.41
2023-08-25T12:37:38.792Z,20.39
2023-08-25T12:38:38.811Z,20.39
2023-08-25T12:39:38.771Z,20.39
2023-08-25T12:40:38.748Z,20.42
2023-08-25T12:41:38.772Z,20.47
2023-08-25T12:42:38.725Z,20.48
2023-08-25T12:43:38.727Z,20.55
2023-08-25T12:44:38.704Z,20.57
2023-08-25T12:45:38.709Z,20.58
2023-08-25T12:46:38.712Z,20.58
2023-08-25T12:47:38.741Z,20.61
2023-08-25T12:48:38.646Z,20.67
2023-08-25T12:49:38.839Z,20.66
2023-08-25T12:50:38.625Z,20.72
2023-08-25T12:51:41.193Z,20.77
2023-08-25T12:52:39.609Z,20.82